Terminal Aerodrome Forecast
Issued by NWS

Home | Current Version | Previous Version | Graphics & Text | Print | Product List | Glossary On
Versions: 1 2 3 4 5 6 7 8 9 10 11 12 13 14
940
FTUS42 KMHX 240530
TAFPGV
TAF
KPGV 240530Z 2406/2506 06009KT P6SM VCSH OVC004
     FM241200 06009KT 5SM -SHRA OVC007
     FM241500 06010G15KT 5SM -SHRA SCT007 OVC010
     FM241800 08012G20KT 5SM -SHRA SCT020 OVC030
     FM250200 07012G20KT 2SM +SHRA VCTS SCT007 OVC020CB
      AMD LTD TO CLD VIS AND WIND=

USA.gov is the U.S. government's official web portal to all federal, state and local government web resources and services.